sensor_id;sensor_type;location;lat;lon;timestamp;pressure;altitude;pressure_sealevel;temperature;humidity
51759;BME280;66684;47.568;18.734;2023-05-22T00:01:22;99410.38;;;17.86;77.26
51759;BME280;66684;47.568;18.734;2023-05-22T00:03:54;99407.75;;;17.89;77.65
51759;BME280;66684;47.568;18.734;2023-05-22T00:06:20;99419.91;;;17.82;78.64
51759;BME280;66684;47.568;18.734;2023-05-22T00:08:47;99414.63;;;17.73;81.14
51759;BME280;66684;47.568;18.734;2023-05-22T00:11:13;99419.81;;;17.71;81.24
51759;BME280;66684;47.568;18.734;2023-05-22T00:13:39;99413.31;;;17.34;82.25
51759;BME280;66684;47.568;18.734;2023-05-22T00:16:05;99415.09;;;17.37;82.27
51759;BME280;66684;47.568;18.734;2023-05-22T00:18:31;99416.63;;;17.16;84.94
51759;BME280;66684;47.568;18.734;2023-05-22T00:20:57;99418.97;;;16.95;87.76
51759;BME280;66684;47.568;18.734;2023-05-22T00:23:24;99419.97;;;17.05;87.70
51759;BME280;66684;47.568;18.734;2023-05-22T00:25:50;99419.78;;;16.89;88.19
51759;BME280;66684;47.568;18.734;2023-05-22T00:28:16;99415.16;;;16.68;90.29
51759;BME280;66684;47.568;18.734;2023-05-22T00:30:42;99421.59;;;16.33;92.65
51759;BME280;66684;47.568;18.734;2023-05-22T00:33:08;99418.88;;;16.24;93.83
51759;BME280;66684;47.568;18.734;2023-05-22T00:35:34;99413.75;;;16.31;94.35
51759;BME280;66684;47.568;18.734;2023-05-22T00:38:02;99413.78;;;16.33;94.53
51759;BME280;66684;47.568;18.734;2023-05-22T00:40:29;99410.38;;;16.37;94.67
51759;BME280;66684;47.568;18.734;2023-05-22T00:42:55;99408.25;;;16.10;95.59
51759;BME280;66684;47.568;18.734;2023-05-22T00:45:20;99409.13;;;16.10;95.32
51759;BME280;66684;47.568;18.734;2023-05-22T00:47:49;99410.88;;;16.11;95.33
51759;BME280;66684;47.568;18.734;2023-05-22T00:50:15;99409.03;;;16.06;97.04
51759;BME280;66684;47.568;18.734;2023-05-22T00:52:44;99410.69;;;15.99;95.94
51759;BME280;66684;47.568;18.734;2023-05-22T00:55:12;99413.19;;;15.93;97.98
51759;BME280;66684;47.568;18.734;2023-05-22T00:57:38;99408.09;;;16.01;98.10
51759;BME280;66684;47.568;18.734;2023-05-22T01:00:08;99404.03;;;16.19;95.05
51759;BME280;66684;47.568;18.734;2023-05-22T01:02:37;99404.78;;;16.12;95.11
51759;BME280;66684;47.568;18.734;2023-05-22T01:05:04;99399.47;;;16.03;95.62
51759;BME280;66684;47.568;18.734;2023-05-22T01:07:32;99411.38;;;15.89;98.34
51759;BME280;66684;47.568;18.734;2023-05-22T01:09:59;99413.87;;;15.83;96.99
51759;BME280;66684;47.568;18.734;2023-05-22T01:13:03;99405.28;;;15.87;96.22
51759;BME280;66684;47.568;18.734;2023-05-22T01:15:42;99408.75;;;15.89;96.70
51759;BME280;66684;47.568;18.734;2023-05-22T01:20:57;99412.97;;;15.79;98.37
51759;BME280;66684;47.568;18.734;2023-05-22T01:23:54;99399.84;;;15.75;99.05
51759;BME280;66684;47.568;18.734;2023-05-22T01:32:33;99407.69;;;15.76;98.12
51759;BME280;66684;47.568;18.734;2023-05-22T01:35:01;99403.31;;;15.74;97.41
51759;BME280;66684;47.568;18.734;2023-05-22T01:37:28;99407.56;;;15.67;97.97
51759;BME280;66684;47.568;18.734;2023-05-22T01:39:54;99396.88;;;15.55;98.53
51759;BME280;66684;47.568;18.734;2023-05-22T01:42:21;99393.69;;;15.70;96.14
51759;BME280;66684;47.568;18.734;2023-05-22T01:44:47;99401.50;;;15.70;97.93
51759;BME280;66684;47.568;18.734;2023-05-22T01:47:13;99408.44;;;15.68;98.55
51759;BME280;66684;47.568;18.734;2023-05-22T01:49:40;99400.53;;;15.64;99.02
51759;BME280;66684;47.568;18.734;2023-05-22T01:52:19;99400.69;;;15.72;98.56
51759;BME280;66684;47.568;18.734;2023-05-22T01:54:54;99392.84;;;15.71;97.87
51759;BME280;66684;47.568;18.734;2023-05-22T01:57:44;99384.09;;;15.67;97.42
51759;BME280;66684;47.568;18.734;2023-05-22T02:00:12;99384.91;;;15.64;96.34
51759;BME280;66684;47.568;18.734;2023-05-22T02:02:44;99384.63;;;15.48;98.30
51759;BME280;66684;47.568;18.734;2023-05-22T02:05:15;99381.72;;;15.31;100.00
51759;BME280;66684;47.568;18.734;2023-05-22T02:07:44;99384.53;;;15.43;96.87
51759;BME280;66684;47.568;18.734;2023-05-22T02:10:12;99378.56;;;15.50;95.92
51759;BME280;66684;47.568;18.734;2023-05-22T02:12:39;99381.81;;;15.37;96.64
51759;BME280;66684;47.568;18.734;2023-05-22T02:15:07;99374.09;;;15.42;95.47
51759;BME280;66684;47.568;18.734;2023-05-22T02:17:37;99375.19;;;15.54;94.07
51759;BME280;66684;47.568;18.734;2023-05-22T02:20:08;99380.50;;;15.60;93.95
51759;BME280;66684;47.568;18.734;2023-05-22T02:22:42;99382.25;;;15.61;92.64
51759;BME280;66684;47.568;18.734;2023-05-22T02:25:14;99372.59;;;15.56;93.65
51759;BME280;66684;47.568;18.734;2023-05-22T02:27:45;99376.56;;;15.34;95.26
51759;BME280;66684;47.568;18.734;2023-05-22T02:30:13;99373.03;;;15.32;95.10
51759;BME280;66684;47.568;18.734;2023-05-22T02:32:39;99366.75;;;15.21;95.43
51759;BME280;66684;47.568;18.734;2023-05-22T02:35:06;99377.97;;;15.17;94.39
51759;BME280;66684;47.568;18.734;2023-05-22T02:37:32;99376.13;;;15.09;94.99
51759;BME280;66684;47.568;18.734;2023-05-22T02:39:58;99376.03;;;15.06;93.62
51759;BME280;66684;47.568;18.734;2023-05-22T02:42:24;99380.03;;;14.88;94.05
51759;BME280;66684;47.568;18.734;2023-05-22T02:44:50;99382.75;;;14.95;91.34
51759;BME280;66684;47.568;18.734;2023-05-22T02:47:16;99380.22;;;14.97;90.10
51759;BME280;66684;47.568;18.734;2023-05-22T02:49:42;99381.13;;;15.00;90.13
51759;BME280;66684;47.568;18.734;2023-05-22T02:52:08;99365.81;;;15.16;87.04
51759;BME280;66684;47.568;18.734;2023-05-22T02:54:34;99366.75;;;15.21;86.29
51759;BME280;66684;47.568;18.734;2023-05-22T02:56:59;99363.41;;;15.26;85.98
51759;BME280;66684;47.568;18.734;2023-05-22T02:59:25;99362.59;;;15.29;85.41
51759;BME280;66684;47.568;18.734;2023-05-22T03:01:51;99361.75;;;15.31;84.92
51759;BME280;66684;47.568;18.734;2023-05-22T03:04:18;99356.62;;;15.34;84.44
51759;BME280;66684;47.568;18.734;2023-05-22T03:06:44;99350.56;;;15.37;84.40
51759;BME280;66684;47.568;18.734;2023-05-22T03:09:11;99361.09;;;15.43;83.43
51759;BME280;66684;47.568;18.734;2023-05-22T03:11:37;99360.25;;;15.44;84.39
51759;BME280;66684;47.568;18.734;2023-05-22T03:14:03;99363.66;;;15.40;87.16
51759;BME280;66684;47.568;18.734;2023-05-22T03:16:28;99367.19;;;15.44;85.73
51759;BME280;66684;47.568;18.734;2023-05-22T03:19:08;99368.69;;;15.31;87.99
51759;BME280;66684;47.568;18.734;2023-05-22T03:21:35;99364.47;;;15.39;87.33
51759;BME280;66684;47.568;18.734;2023-05-22T03:24:01;99355.00;;;15.43;87.68
51759;BME280;66684;47.568;18.734;2023-05-22T03:26:27;99362.38;;;15.17;88.29
51759;BME280;66684;47.568;18.734;2023-05-22T03:28:54;99362.81;;;15.41;84.99
51759;BME280;66684;47.568;18.734;2023-05-22T03:31:20;99355.97;;;15.46;85.03
51759;BME280;66684;47.568;18.734;2023-05-22T03:33:46;99359.59;;;15.57;83.36
51759;BME280;66684;47.568;18.734;2023-05-22T03:36:12;99358.78;;;15.60;83.33
51759;BME280;66684;47.568;18.734;2023-05-22T03:38:37;99363.88;;;15.54;83.41
51759;BME280;66684;47.568;18.734;2023-05-22T03:41:03;99367.38;;;15.56;82.70
51759;BME280;66684;47.568;18.734;2023-05-22T03:43:29;99369.88;;;15.48;84.74
51759;BME280;66684;47.568;18.734;2023-05-22T03:45:55;99373.38;;;15.50;86.45
51759;BME280;66684;47.568;18.734;2023-05-22T03:48:24;99368.41;;;15.62;85.31
51759;BME280;66684;47.568;18.734;2023-05-22T03:50:49;99364.12;;;15.66;84.64
51759;BME280;66684;47.568;18.734;2023-05-22T03:53:16;99358.31;;;15.84;79.90
51759;BME280;66684;47.568;18.734;2023-05-22T03:55:42;99353.37;;;16.02;77.25
51759;BME280;66684;47.568;18.734;2023-05-22T03:58:08;99343.91;;;16.07;77.28
51759;BME280;66684;47.568;18.734;2023-05-22T04:00:33;99351.94;;;16.23;76.19
51759;BME280;66684;47.568;18.734;2023-05-22T04:02:59;99355.53;;;16.31;76.46
51759;BME280;66684;47.568;18.734;2023-05-22T04:05:25;99347.06;;;16.47;77.13
51759;BME280;66684;47.568;18.734;2023-05-22T04:07:51;99350.50;;;16.46;76.34
51759;BME280;66684;47.568;18.734;2023-05-22T04:10:17;99349.66;;;16.47;77.15
51759;BME280;66684;47.568;18.734;2023-05-22T04:12:47;99353.22;;;16.54;75.27
51759;BME280;66684;47.568;18.734;2023-05-22T04:15:12;99352.41;;;16.59;76.54
51759;BME280;66684;47.568;18.734;2023-05-22T04:17:39;99353.59;;;16.81;75.09
51759;BME280;66684;47.568;18.734;2023-05-22T04:20:06;99351.97;;;16.94;74.10
51759;BME280;66684;47.568;18.734;2023-05-22T04:22:33;99351.03;;;16.86;72.96
51759;BME280;66684;47.568;18.734;2023-05-22T04:24:59;99363.16;;;16.81;71.73
51759;BME280;66684;47.568;18.734;2023-05-22T04:27:25;99360.75;;;16.97;72.01
51759;BME280;66684;47.568;18.734;2023-05-22T04:29:51;99359.06;;;17.06;71.42
51759;BME280;66684;47.568;18.734;2023-05-22T04:32:17;99367.78;;;17.05;72.37
51759;BME280;66684;47.568;18.734;2023-05-22T04:34:47;99361.88;;;17.22;72.65
51759;BME280;66684;47.568;18.734;2023-05-22T04:37:15;99361.06;;;17.33;70.88
51759;BME280;66684;47.568;18.734;2023-05-22T04:39:41;99360.19;;;17.31;71.63
51759;BME280;66684;47.568;18.734;2023-05-22T04:42:07;99368.03;;;17.29;76.51
51759;BME280;66684;47.568;18.734;2023-05-22T04:44:33;99368.91;;;17.31;76.49
51759;BME280;66684;47.568;18.734;2023-05-22T04:47:00;99361.13;;;17.40;76.78
51759;BME280;66684;47.568;18.734;2023-05-22T04:49:26;99360.28;;;17.40;79.30
51759;BME280;66684;47.568;18.734;2023-05-22T04:51:56;99366.47;;;17.48;83.02
51759;BME280;66684;47.568;18.734;2023-05-22T04:54:22;99364.72;;;17.51;85.03
51759;BME280;66684;47.568;18.734;2023-05-22T04:56:51;99363.84;;;17.51;82.20
51759;BME280;66684;47.568;18.734;2023-05-22T04:59:17;99367.34;;;17.50;86.63
51759;BME280;66684;47.568;18.734;2023-05-22T05:01:44;99360.37;;;17.49;86.53
51759;BME280;66684;47.568;18.734;2023-05-22T05:04:10;99359.56;;;17.59;85.51
51759;BME280;66684;47.568;18.734;2023-05-22T05:06:36;99364.84;;;17.61;89.72
51759;BME280;66684;47.568;18.734;2023-05-22T05:09:03;99361.41;;;17.66;89.22
51759;BME280;66684;47.568;18.734;2023-05-22T05:11:29;99366.72;;;17.78;89.02
51759;BME280;66684;47.568;18.734;2023-05-22T05:13:55;99375.56;;;17.94;90.23
51759;BME280;66684;47.568;18.734;2023-05-22T05:16:21;99372.12;;;18.01;91.99
51759;BME280;66684;47.568;18.734;2023-05-22T05:18:49;99373.06;;;18.11;89.75
51759;BME280;66684;47.568;18.734;2023-05-22T05:21:16;99367.03;;;18.18;86.21
51759;BME280;66684;47.568;18.734;2023-05-22T05:23:42;99374.88;;;18.21;91.43
51759;BME280;66684;47.568;18.734;2023-05-22T05:26:08;99386.19;;;18.17;94.23
51759;BME280;66684;47.568;18.734;2023-05-22T05:28:34;99379.97;;;18.00;94.02
51759;BME280;66684;47.568;18.734;2023-05-22T05:31:00;99390.56;;;18.21;94.84
51759;BME280;66684;47.568;18.734;2023-05-22T05:33:26;99381.88;;;18.25;94.72
51759;BME280;66684;47.568;18.734;2023-05-22T05:35:52;99386.34;;;18.48;95.40
51759;BME280;66684;47.568;18.734;2023-05-22T05:38:18;99397.88;;;18.74;92.21
51759;BME280;66684;47.568;18.734;2023-05-22T05:40:44;99396.03;;;18.61;92.60
51759;BME280;66684;47.568;18.734;2023-05-22T05:43:10;99403.81;;;18.53;94.44
51759;BME280;66684;47.568;18.734;2023-05-22T05:45:38;99402.06;;;18.54;92.15
51759;BME280;66684;47.568;18.734;2023-05-22T05:48:04;99402.94;;;18.50;92.39
51759;BME280;66684;47.568;18.734;2023-05-22T05:50:31;99406.44;;;18.49;86.11
51759;BME280;66684;47.568;18.734;2023-05-22T05:52:57;99398.56;;;18.43;77.47
51759;BME280;66684;47.568;18.734;2023-05-22T05:55:22;99402.03;;;18.43;74.73
51759;BME280;66684;47.568;18.734;2023-05-22T05:57:48;99402.91;;;18.44;73.84
51759;BME280;66684;47.568;18.734;2023-05-22T06:00:14;99399.44;;;18.45;71.37
51759;BME280;66684;47.568;18.734;2023-05-22T06:02:41;99404.72;;;18.57;72.99
51759;BME280;66684;47.568;18.734;2023-05-22T06:05:07;99404.75;;;18.63;75.48
51759;BME280;66684;47.568;18.734;2023-05-22T06:07:33;99401.28;;;18.64;74.95
51759;BME280;66684;47.568;18.734;2023-05-22T06:10:06;99416.22;;;18.80;74.50
51759;BME280;66684;47.568;18.734;2023-05-22T06:12:32;99411.00;;;18.82;73.16
51759;BME280;66684;47.568;18.734;2023-05-22T06:14:57;99417.06;;;18.73;72.91
51759;BME280;66684;47.568;18.734;2023-05-22T06:17:23;99409.22;;;18.75;72.47
51759;BME280;66684;47.568;18.734;2023-05-22T06:19:49;99405.59;;;18.59;72.18
51759;BME280;66684;47.568;18.734;2023-05-22T06:22:15;99415.19;;;18.60;73.75
51759;BME280;66684;47.568;18.734;2023-05-22T06:24:41;99415.22;;;18.63;75.25
51759;BME280;66684;47.568;18.734;2023-05-22T06:27:07;99423.91;;;18.56;73.38
51759;BME280;66684;47.568;18.734;2023-05-22T06:29:33;99408.19;;;18.50;72.81
51759;BME280;66684;47.568;18.734;2023-05-22T06:31:59;99412.53;;;18.51;73.71
51759;BME280;66684;47.568;18.734;2023-05-22T06:34:25;99426.44;;;18.41;77.22
51759;BME280;66684;47.568;18.734;2023-05-22T06:36:52;99416.91;;;18.49;77.74
51759;BME280;66684;47.568;18.734;2023-05-22T06:39:18;99429.03;;;18.41;82.14
51759;BME280;66684;47.568;18.734;2023-05-22T06:41:44;99420.34;;;18.42;80.11
51759;BME280;66684;47.568;18.734;2023-05-22T06:44:10;99422.94;;;18.39;80.05
51759;BME280;66684;47.568;18.734;2023-05-22T06:46:36;99408.16;;;18.44;81.40
51759;BME280;66684;47.568;18.734;2023-05-22T06:49:02;99426.53;;;18.59;80.90
51759;BME280;66684;47.568;18.734;2023-05-22T06:51:28;99425.75;;;18.71;81.01
51759;BME280;66684;47.568;18.734;2023-05-22T06:53:54;99427.53;;;18.73;79.62
51759;BME280;66684;47.568;18.734;2023-05-22T06:56:21;99421.50;;;18.88;79.43
51759;BME280;66684;47.568;18.734;2023-05-22T06:58:47;99418.91;;;19.02;79.34
51759;BME280;66684;47.568;18.734;2023-05-22T07:01:13;99431.13;;;19.01;80.05
51759;BME280;66684;47.568;18.734;2023-05-22T07:03:39;99438.09;;;18.95;77.08
51759;BME280;66684;47.568;18.734;2023-05-22T07:06:05;99436.41;;;19.09;76.15
51759;BME280;66684;47.568;18.734;2023-05-22T07:08:32;99425.06;;;19.11;77.88
51759;BME280;66684;47.568;18.734;2023-05-22T07:10:58;99409.31;;;19.04;68.62
51759;BME280;66684;47.568;18.734;2023-05-22T07:13:26;99410.25;;;19.18;66.97
51759;BME280;66684;47.568;18.734;2023-05-22T07:15:53;99420.69;;;19.09;68.02
51759;BME280;66684;47.568;18.734;2023-05-22T07:18:19;99419.78;;;19.04;68.58
51759;BME280;66684;47.568;18.734;2023-05-22T07:20:45;99407.63;;;19.21;67.09
51759;BME280;66684;47.568;18.734;2023-05-22T07:23:11;99412.03;;;19.40;68.53
51759;BME280;66684;47.568;18.734;2023-05-22T07:25:37;99415.59;;;19.73;70.27
51759;BME280;66684;47.568;18.734;2023-05-22T07:28:03;99415.59;;;19.70;58.35
51759;BME280;66684;47.568;18.734;2023-05-22T07:30:35;99412.97;;;19.65;58.67
51759;BME280;66684;47.568;18.734;2023-05-22T07:33:01;99417.34;;;19.71;58.74
51759;BME280;66684;47.568;18.734;2023-05-22T07:35:27;99413.00;;;19.94;57.11
51759;BME280;66684;47.568;18.734;2023-05-22T07:37:53;99413.84;;;20.21;56.57
51759;BME280;66684;47.568;18.734;2023-05-22T07:40:19;99410.31;;;20.43;55.06
51759;BME280;66684;47.568;18.734;2023-05-22T07:42:45;99401.56;;;20.47;54.69
51759;BME280;66684;47.568;18.734;2023-05-22T07:45:11;99410.34;;;20.16;55.75
51759;BME280;66684;47.568;18.734;2023-05-22T07:47:36;99405.94;;;20.53;56.85
51759;BME280;66684;47.568;18.734;2023-05-22T07:50:03;99404.19;;;20.51;56.04
51759;BME280;66684;47.568;18.734;2023-05-22T07:52:29;99408.56;;;20.48;56.43
51759;BME280;66684;47.568;18.734;2023-05-22T07:54:56;99412.06;;;20.29;57.92
51759;BME280;66684;47.568;18.734;2023-05-22T07:57:22;99419.09;;;20.18;57.06
51759;BME280;66684;47.568;18.734;2023-05-22T07:59:48;99418.22;;;20.14;54.09
51759;BME280;66684;47.568;18.734;2023-05-22T08:02:16;99411.22;;;20.13;57.16
51759;BME280;66684;47.568;18.734;2023-05-22T08:04:43;99412.06;;;20.38;53.38
51759;BME280;66684;47.568;18.734;2023-05-22T08:07:13;99405.91;;;20.68;54.82
51759;BME280;66684;47.568;18.734;2023-05-22T08:09:39;99410.28;;;20.62;53.20
51759;BME280;66684;47.568;18.734;2023-05-22T08:12:06;99406.75;;;20.72;53.08
51759;BME280;66684;47.568;18.734;2023-05-22T08:14:32;99410.19;;;20.86;51.70
51759;BME280;66684;47.568;18.734;2023-05-22T08:16:58;99415.31;;;21.11;49.56
51759;BME280;66684;47.568;18.734;2023-05-22T08:19:24;99400.41;;;21.20;48.76
51759;BME280;66684;47.568;18.734;2023-05-22T08:21:50;99408.25;;;21.25;50.57
51759;BME280;66684;47.568;18.734;2023-05-22T08:24:25;99401.28;;;21.15;48.11
51759;BME280;66684;47.568;18.734;2023-05-22T08:26:56;99401.31;;;21.06;49.05
51759;BME280;66684;47.568;18.734;2023-05-22T08:29:23;99399.66;;;20.95;49.39
51759;BME280;66684;47.568;18.734;2023-05-22T08:31:49;99404.84;;;21.08;52.78
51759;BME280;66684;47.568;18.734;2023-05-22T08:34:16;99409.25;;;20.96;48.80
51759;BME280;66684;47.568;18.734;2023-05-22T08:36:42;99403.28;;;20.68;49.94
51759;BME280;66684;47.568;18.734;2023-05-22T08:39:08;99405.87;;;20.70;53.08
51759;BME280;66684;47.568;18.734;2023-05-22T08:41:35;99400.53;;;20.90;50.69
51759;BME280;66684;47.568;18.734;2023-05-22T08:44:01;99401.31;;;21.06;52.52
51759;BME280;66684;47.568;18.734;2023-05-22T08:46:27;99406.63;;;21.02;54.93
51759;BME280;66684;47.568;18.734;2023-05-22T08:48:57;99392.50;;;21.25;51.57
51759;BME280;66684;47.568;18.734;2023-05-22T08:51:28;99401.22;;;21.24;51.71
51759;BME280;66684;47.568;18.734;2023-05-22T08:53:56;99401.16;;;21.45;52.94
51759;BME280;66684;47.568;18.734;2023-05-22T08:56:22;99401.16;;;21.42;50.45
51759;BME280;66684;47.568;18.734;2023-05-22T08:58:49;99402.84;;;21.52;51.02
51759;BME280;66684;47.568;18.734;2023-05-22T09:01:16;99397.53;;;21.59;52.41
51759;BME280;66684;47.568;18.734;2023-05-22T09:03:42;99402.81;;;21.55;50.87
51759;BME280;66684;47.568;18.734;2023-05-22T09:06:08;99401.09;;;21.53;51.86
51759;BME280;66684;47.568;18.734;2023-05-22T09:08:36;99404.31;;;21.87;50.85
51759;BME280;66684;47.568;18.734;2023-05-22T09:11:03;99400.03;;;21.78;51.07
51759;BME280;66684;47.568;18.734;2023-05-22T09:13:30;99409.69;;;21.73;53.08
51759;BME280;66684;47.568;18.734;2023-05-22T09:16:14;99409.75;;;21.66;52.16
51759;BME280;66684;47.568;18.734;2023-05-22T09:18:40;99399.09;;;21.84;51.21
51759;BME280;66684;47.568;18.734;2023-05-22T09:21:10;99411.12;;;22.16;52.18
51759;BME280;66684;47.568;18.734;2023-05-22T09:23:37;99407.19;;;22.56;50.74
51759;BME280;66684;47.568;18.734;2023-05-22T09:26:03;99402.47;;;22.87;51.30
51759;BME280;66684;47.568;18.734;2023-05-22T09:28:34;99403.16;;;23.03;49.70
51759;BME280;66684;47.568;18.734;2023-05-22T09:31:01;99401.16;;;23.21;47.24
51759;BME280;66684;47.568;18.734;2023-05-22T09:33:28;99393.66;;;23.53;46.98
51759;BME280;66684;47.568;18.734;2023-05-22T09:35:54;99395.78;;;23.87;46.11
51759;BME280;66684;47.568;18.734;2023-05-22T09:38:21;99383.00;;;24.13;45.10
51759;BME280;66684;47.568;18.734;2023-05-22T09:40:53;99392.19;;;24.42;47.96
51759;BME280;66684;47.568;18.734;2023-05-22T09:43:20;99384.63;;;24.68;45.56
51759;BME280;66684;47.568;18.734;2023-05-22T09:45:46;99381.44;;;24.94;44.24
51759;BME280;66684;47.568;18.734;2023-05-22T09:48:15;99371.25;;;25.18;44.53
51759;BME280;66684;47.568;18.734;2023-05-22T09:50:46;99381.53;;;25.32;45.52
51759;BME280;66684;47.568;18.734;2023-05-22T09:53:15;99378.63;;;25.42;44.43
51759;BME280;66684;47.568;18.734;2023-05-22T09:55:42;99377.38;;;25.21;44.13
51759;BME280;66684;47.568;18.734;2023-05-22T09:58:12;99371.19;;;24.79;45.84
51759;BME280;66684;47.568;18.734;2023-05-22T10:00:41;99369.66;;;25.11;46.74
51759;BME280;66684;47.568;18.734;2023-05-22T10:03:09;99371.00;;;24.45;47.35
51759;BME280;66684;47.568;18.734;2023-05-22T10:05:45;99368.69;;;24.25;45.00
51759;BME280;66684;47.568;18.734;2023-05-22T10:08:17;99369.13;;;24.50;46.38
51759;BME280;66684;47.568;18.734;2023-05-22T10:10:51;99363.09;;;24.43;46.63
51759;BME280;66684;47.568;18.734;2023-05-22T10:13:18;99376.87;;;24.11;47.66
51759;BME280;66684;47.568;18.734;2023-05-22T10:15:49;99376.72;;;24.20;50.14
51759;BME280;66684;47.568;18.734;2023-05-22T10:18:15;99369.63;;;24.22;48.55
51759;BME280;66684;47.568;18.734;2023-05-22T10:20:42;99371.22;;;23.82;50.13
51759;BME280;66684;47.568;18.734;2023-05-22T10:23:09;99368.44;;;23.91;49.99
51759;BME280;66684;47.568;18.734;2023-05-22T10:25:38;99363.63;;;24.14;48.30
51759;BME280;66684;47.568;18.734;2023-05-22T10:28:05;99367.94;;;24.20;48.52
51759;BME280;66684;47.568;18.734;2023-05-22T10:33:32;99358.72;;;24.86;48.46
51759;BME280;66684;47.568;18.734;2023-05-22T10:36:01;99359.53;;;24.88;49.97
51759;BME280;66684;47.568;18.734;2023-05-22T10:41:23;99351.00;;;24.77;48.90
51759;BME280;66684;47.568;18.734;2023-05-22T10:43:49;99358.81;;;24.81;49.96
51759;BME280;66684;47.568;18.734;2023-05-22T10:46:15;99357.91;;;24.84;48.86
51759;BME280;66684;47.568;18.734;2023-05-22T10:48:49;99359.53;;;24.89;47.80
51759;BME280;66684;47.568;18.734;2023-05-22T10:51:20;99351.50;;;24.52;49.56
51759;BME280;66684;47.568;18.734;2023-05-22T10:53:51;99348.47;;;24.24;49.30
51759;BME280;66684;47.568;18.734;2023-05-22T10:56:18;99346.72;;;24.25;47.84
51759;BME280;66684;47.568;18.734;2023-05-22T10:58:54;99347.84;;;24.59;48.24
51759;BME280;66684;47.568;18.734;2023-05-22T11:01:24;99349.09;;;24.40;46.99
51759;BME280;66684;47.568;18.734;2023-05-22T11:03:51;99343.03;;;24.35;49.18
51759;BME280;66684;47.568;18.734;2023-05-22T11:08:56;99334.12;;;24.82;50.46
51759;BME280;66684;47.568;18.734;2023-05-22T11:11:26;99332.13;;;25.34;46.74
51759;BME280;66684;47.568;18.734;2023-05-22T11:14:00;99324.09;;;25.37;45.79
51759;BME280;66684;47.568;18.734;2023-05-22T11:16:33;99327.41;;;25.46;45.80
51759;BME280;66684;47.568;18.734;2023-05-22T11:19:04;99326.25;;;25.21;44.90
51759;BME280;66684;47.568;18.734;2023-05-22T11:21:34;99316.94;;;25.42;44.73
51759;BME280;66684;47.568;18.734;2023-05-22T11:24:00;99309.28;;;25.29;46.50
51759;BME280;66684;47.568;18.734;2023-05-22T11:26:27;99312.91;;;25.97;47.44
51759;BME280;66684;47.568;18.734;2023-05-22T11:28:53;99310.66;;;25.81;45.41
51759;BME280;66684;47.568;18.734;2023-05-22T11:31:19;99309.94;;;25.75;45.11
51759;BME280;66684;47.568;18.734;2023-05-22T11:33:47;99312.59;;;25.75;45.29
51759;BME280;66684;47.568;18.734;2023-05-22T11:36:14;99303.78;;;25.74;42.34
51759;BME280;66684;47.568;18.734;2023-05-22T11:38:40;99301.16;;;26.07;43.41
51759;BME280;66684;47.568;18.734;2023-05-22T11:41:08;99305.22;;;25.52;46.75
51759;BME280;66684;47.568;18.734;2023-05-22T11:43:35;99293.19;;;26.07;43.37
51759;BME280;66684;47.568;18.734;2023-05-22T11:46:10;99295.72;;;26.12;42.14
51759;BME280;66684;47.568;18.734;2023-05-22T11:48:40;99295.62;;;26.16;42.32
51759;BME280;66684;47.568;18.734;2023-05-22T11:51:07;99295.50;;;26.52;42.64
51759;BME280;66684;47.568;18.734;2023-05-22T11:53:34;99287.09;;;26.97;42.99
51759;BME280;66684;47.568;18.734;2023-05-22T11:56:04;99279.91;;;27.55;41.00
51759;BME280;66684;47.568;18.734;2023-05-22T11:58:31;99277.03;;;27.87;39.48
51759;BME280;66684;47.568;18.734;2023-05-22T12:01:01;99275.94;;;28.18;39.40
51759;BME280;66684;47.568;18.734;2023-05-22T12:03:29;99270.16;;;28.32;38.63
51759;BME280;66684;47.568;18.734;2023-05-22T12:05:56;99278.06;;;27.83;39.42
51759;BME280;66684;47.568;18.734;2023-05-22T12:08:23;99273.25;;;27.68;40.50
51759;BME280;66684;47.568;18.734;2023-05-22T12:10:50;99278.41;;;26.92;41.61
51759;BME280;66684;47.568;18.734;2023-05-22T12:15:51;99267.63;;;26.96;40.48
51759;BME280;66684;47.568;18.734;2023-05-22T12:18:17;99271.84;;;27.31;40.25
51759;BME280;66684;47.568;18.734;2023-05-22T12:20:44;99272.38;;;27.69;39.31
51759;BME280;66684;47.568;18.734;2023-05-22T12:23:11;99268.19;;;27.35;39.09
51759;BME280;66684;47.568;18.734;2023-05-22T12:25:37;99267.13;;;27.13;41.87
51759;BME280;66684;47.568;18.734;2023-05-22T12:28:05;99267.38;;;26.48;41.49
51759;BME280;66684;47.568;18.734;2023-05-22T12:30:40;99262.97;;;26.47;41.70
51759;BME280;66684;47.568;18.734;2023-05-22T12:33:11;99263.09;;;27.00;42.10
51759;BME280;66684;47.568;18.734;2023-05-22T12:35:38;99256.44;;;27.42;41.29
51759;BME280;66684;47.568;18.734;2023-05-22T12:38:06;99247.41;;;26.94;40.62
51759;BME280;66684;47.568;18.734;2023-05-22T12:40:31;99246.66;;;26.88;41.98
51759;BME280;66684;47.568;18.734;2023-05-22T12:42:57;99247.56;;;27.17;41.06
51759;BME280;66684;47.568;18.734;2023-05-22T12:45:23;99238.28;;;27.30;42.39
51759;BME280;66684;47.568;18.734;2023-05-22T12:47:49;99238.34;;;27.27;39.88
51759;BME280;66684;47.568;18.734;2023-05-22T12:50:15;99229.69;;;27.49;40.27
51759;BME280;66684;47.568;18.734;2023-05-22T12:52:41;99225.44;;;27.94;38.58
51759;BME280;66684;47.568;18.734;2023-05-22T12:55:09;99218.34;;;27.95;39.17
51759;BME280;66684;47.568;18.734;2023-05-22T12:57:35;99220.62;;;28.06;39.05
51759;BME280;66684;47.568;18.734;2023-05-22T13:00:01;99217.28;;;28.24;38.88
51759;BME280;66684;47.568;18.734;2023-05-22T13:02:27;99208.81;;;28.13;38.48
51759;BME280;66684;47.568;18.734;2023-05-22T13:04:53;99214.00;;;28.16;40.11
51759;BME280;66684;47.568;18.734;2023-05-22T13:07:18;99208.22;;;27.81;39.71
51759;BME280;66684;47.568;18.734;2023-05-22T13:09:44;99209.03;;;27.83;40.01
51759;BME280;66684;47.568;18.734;2023-05-22T13:12:10;99204.69;;;28.29;39.88